sensor_id;sensor_type;location;lat;lon;timestamp;P1;durP1;ratioP1;P2;durP2;ratioP2
42668;SDS011;29384;42.028;21.388;2022-07-29T00:01:50;6.85;;;4.72;;
42668;SDS011;29384;42.028;21.388;2022-07-29T00:04:17;13.15;;;4.57;;
42668;SDS011;29384;42.028;21.388;2022-07-29T00:06:43;4.55;;;4.25;;
42668;SDS011;29384;42.028;21.388;2022-07-29T00:09:08;4.88;;;4.50;;
42668;SDS011;29384;42.028;21.388;2022-07-29T00:11:34;7.40;;;4.18;;
42668;SDS011;29384;42.028;21.388;2022-07-29T00:13:59;7.03;;;4.10;;
42668;SDS011;29384;42.028;21.388;2022-07-29T00:16:25;4.90;;;4.55;;
42668;SDS011;29384;42.028;21.388;2022-07-29T00:18:50;4.45;;;4.07;;
42668;SDS011;29384;42.028;21.388;2022-07-29T00:24:37;5.43;;;4.38;;
42668;SDS011;29384;42.028;21.388;2022-07-29T00:27:02;5.85;;;4.25;;
42668;SDS011;29384;42.028;21.388;2022-07-29T00:29:28;4.63;;;4.22;;
42668;SDS011;29384;42.028;21.388;2022-07-29T00:31:53;5.07;;;4.55;;
42668;SDS011;29384;42.028;21.388;2022-07-29T00:34:19;5.80;;;5.03;;
42668;SDS011;29384;42.028;21.388;2022-07-29T00:39:29;4.88;;;4.40;;
42668;SDS011;29384;42.028;21.388;2022-07-29T00:41:54;5.25;;;4.75;;
42668;SDS011;29384;42.028;21.388;2022-07-29T00:44:20;4.82;;;4.47;;
42668;SDS011;29384;42.028;21.388;2022-07-29T00:46:45;9.82;;;4.88;;
42668;SDS011;29384;42.028;21.388;2022-07-29T00:49:11;9.38;;;5.57;;
42668;SDS011;29384;42.028;21.388;2022-07-29T00:54:58;18.05;;;5.88;;
42668;SDS011;29384;42.028;21.388;2022-07-29T00:57:24;8.02;;;5.07;;
42668;SDS011;29384;42.028;21.388;2022-07-29T00:59:49;5.25;;;4.93;;
42668;SDS011;29384;42.028;21.388;2022-07-29T01:02:15;7.32;;;4.88;;
42668;SDS011;29384;42.028;21.388;2022-07-29T01:04:40;8.50;;;5.07;;
42668;SDS011;29384;42.028;21.388;2022-07-29T01:07:06;5.75;;;4.72;;
42668;SDS011;29384;42.028;21.388;2022-07-29T01:09:32;9.32;;;4.57;;
42668;SDS011;29384;42.028;21.388;2022-07-29T01:11:59;8.75;;;5.38;;
42668;SDS011;29384;42.028;21.388;2022-07-29T01:14:25;7.40;;;5.78;;
42668;SDS011;29384;42.028;21.388;2022-07-29T01:16:54;10.38;;;6.05;;
42668;SDS011;29384;42.028;21.388;2022-07-29T01:30:45;10.23;;;5.90;;
42668;SDS011;29384;42.028;21.388;2022-07-29T01:33:15;12.02;;;6.28;;
42668;SDS011;29384;42.028;21.388;2022-07-29T01:36:01;12.60;;;6.45;;
42668;SDS011;29384;42.028;21.388;2022-07-29T01:38:32;12.02;;;6.40;;
42668;SDS011;29384;42.028;21.388;2022-07-29T01:41:02;10.32;;;6.57;;
42668;SDS011;29384;42.028;21.388;2022-07-29T01:43:38;13.52;;;7.40;;
42668;SDS011;29384;42.028;21.388;2022-07-29T01:46:10;8.93;;;5.45;;
42668;SDS011;29384;42.028;21.388;2022-07-29T01:48:45;16.58;;;5.93;;
42668;SDS011;29384;42.028;21.388;2022-07-29T01:51:19;8.82;;;6.38;;
42668;SDS011;29384;42.028;21.388;2022-07-29T01:53:57;8.57;;;6.03;;
42668;SDS011;29384;42.028;21.388;2022-07-29T01:56:29;10.82;;;6.95;;
42668;SDS011;29384;42.028;21.388;2022-07-29T01:58:58;23.15;;;7.32;;
42668;SDS011;29384;42.028;21.388;2022-07-29T02:01:26;17.17;;;7.40;;
42668;SDS011;29384;42.028;21.388;2022-07-29T02:03:52;10.55;;;6.90;;
42668;SDS011;29384;42.028;21.388;2022-07-29T02:06:21;9.80;;;5.68;;
42668;SDS011;29384;42.028;21.388;2022-07-29T02:08:47;24.15;;;7.68;;
42668;SDS011;29384;42.028;21.388;2022-07-29T02:11:15;17.30;;;7.15;;
42668;SDS011;29384;42.028;21.388;2022-07-29T02:13:41;11.57;;;6.97;;
42668;SDS011;29384;42.028;21.388;2022-07-29T02:16:09;8.15;;;6.60;;
42668;SDS011;29384;42.028;21.388;2022-07-29T02:18:39;13.00;;;6.72;;
42668;SDS011;29384;42.028;21.388;2022-07-29T02:21:08;9.73;;;6.05;;
42668;SDS011;29384;42.028;21.388;2022-07-29T02:23:35;7.68;;;6.05;;
42668;SDS011;29384;42.028;21.388;2022-07-29T02:26:02;11.50;;;7.18;;
42668;SDS011;29384;42.028;21.388;2022-07-29T02:28:28;23.88;;;10.18;;
42668;SDS011;29384;42.028;21.388;2022-07-29T02:30:55;27.17;;;11.77;;
42668;SDS011;29384;42.028;21.388;2022-07-29T02:33:24;25.65;;;10.38;;
42668;SDS011;29384;42.028;21.388;2022-07-29T02:35:50;30.73;;;12.07;;
42668;SDS011;29384;42.028;21.388;2022-07-29T02:38:18;19.63;;;10.20;;
42668;SDS011;29384;42.028;21.388;2022-07-29T02:41:13;29.83;;;11.77;;
42668;SDS011;29384;42.028;21.388;2022-07-29T02:43:44;30.10;;;12.75;;
42668;SDS011;29384;42.028;21.388;2022-07-29T02:46:20;39.08;;;13.10;;
42668;SDS011;29384;42.028;21.388;2022-07-29T02:49:02;27.73;;;12.05;;
42668;SDS011;29384;42.028;21.388;2022-07-29T02:51:41;25.80;;;12.48;;
42668;SDS011;29384;42.028;21.388;2022-07-29T02:54:10;35.20;;;12.05;;
42668;SDS011;29384;42.028;21.388;2022-07-29T02:56:44;26.95;;;11.00;;
42668;SDS011;29384;42.028;21.388;2022-07-29T02:59:11;20.67;;;10.82;;
42668;SDS011;29384;42.028;21.388;2022-07-29T03:01:41;24.27;;;10.35;;
42668;SDS011;29384;42.028;21.388;2022-07-29T03:04:08;25.52;;;11.13;;
42668;SDS011;29384;42.028;21.388;2022-07-29T03:06:36;32.88;;;10.50;;
42668;SDS011;29384;42.028;21.388;2022-07-29T03:09:03;30.35;;;9.55;;
42668;SDS011;29384;42.028;21.388;2022-07-29T03:11:32;26.83;;;10.73;;
42668;SDS011;29384;42.028;21.388;2022-07-29T03:13:59;26.13;;;10.75;;
42668;SDS011;29384;42.028;21.388;2022-07-29T03:16:26;25.52;;;10.73;;
42668;SDS011;29384;42.028;21.388;2022-07-29T03:18:52;22.95;;;10.15;;
42668;SDS011;29384;42.028;21.388;2022-07-29T03:21:18;24.98;;;10.68;;
42668;SDS011;29384;42.028;21.388;2022-07-29T03:23:44;24.02;;;9.57;;
42668;SDS011;29384;42.028;21.388;2022-07-29T03:26:13;14.23;;;9.07;;
42668;SDS011;29384;42.028;21.388;2022-07-29T03:28:38;12.77;;;7.50;;
42668;SDS011;29384;42.028;21.388;2022-07-29T03:31:04;10.77;;;6.85;;
42668;SDS011;29384;42.028;21.388;2022-07-29T03:33:30;13.45;;;6.07;;
42668;SDS011;29384;42.028;21.388;2022-07-29T03:35:55;10.35;;;6.53;;
42668;SDS011;29384;42.028;21.388;2022-07-29T03:38:23;8.52;;;5.90;;
42668;SDS011;29384;42.028;21.388;2022-07-29T03:40:55;5.70;;;5.18;;
42668;SDS011;29384;42.028;21.388;2022-07-29T03:43:23;6.55;;;5.13;;
42668;SDS011;29384;42.028;21.388;2022-07-29T03:45:55;5.57;;;5.07;;
42668;SDS011;29384;42.028;21.388;2022-07-29T03:48:24;4.88;;;4.47;;
42668;SDS011;29384;42.028;21.388;2022-07-29T03:50:51;6.25;;;4.97;;
42668;SDS011;29384;42.028;21.388;2022-07-29T03:53:17;6.50;;;4.78;;
42668;SDS011;29384;42.028;21.388;2022-07-29T03:55:45;6.28;;;5.75;;
42668;SDS011;29384;42.028;21.388;2022-07-29T03:58:12;14.10;;;5.88;;
42668;SDS011;29384;42.028;21.388;2022-07-29T04:00:39;4.15;;;3.88;;
42668;SDS011;29384;42.028;21.388;2022-07-29T04:03:05;5.00;;;4.78;;
42668;SDS011;29384;42.028;21.388;2022-07-29T04:05:31;5.72;;;4.90;;
42668;SDS011;29384;42.028;21.388;2022-07-29T04:07:57;4.32;;;4.03;;
42668;SDS011;29384;42.028;21.388;2022-07-29T04:10:23;4.97;;;4.53;;
42668;SDS011;29384;42.028;21.388;2022-07-29T04:12:49;9.57;;;5.75;;
42668;SDS011;29384;42.028;21.388;2022-07-29T04:15:14;5.80;;;4.90;;
42668;SDS011;29384;42.028;21.388;2022-07-29T04:17:40;4.93;;;4.53;;
42668;SDS011;29384;42.028;21.388;2022-07-29T04:20:05;5.65;;;5.15;;
42668;SDS011;29384;42.028;21.388;2022-07-29T04:25:53;12.48;;;4.82;;
42668;SDS011;29384;42.028;21.388;2022-07-29T04:28:18;5.18;;;4.80;;
42668;SDS011;29384;42.028;21.388;2022-07-29T04:30:44;7.20;;;4.85;;
42668;SDS011;29384;42.028;21.388;2022-07-29T04:33:09;6.38;;;5.88;;
42668;SDS011;29384;42.028;21.388;2022-07-29T04:35:38;5.35;;;4.88;;
42668;SDS011;29384;42.028;21.388;2022-07-29T04:38:04;11.82;;;4.85;;
42668;SDS011;29384;42.028;21.388;2022-07-29T04:40:30;9.65;;;5.90;;
42668;SDS011;29384;42.028;21.388;2022-07-29T04:42:58;5.07;;;4.20;;
42668;SDS011;29384;42.028;21.388;2022-07-29T04:45:24;7.00;;;5.40;;
42668;SDS011;29384;42.028;21.388;2022-07-29T04:47:49;5.90;;;5.30;;
42668;SDS011;29384;42.028;21.388;2022-07-29T04:50:15;4.05;;;3.58;;
42668;SDS011;29384;42.028;21.388;2022-07-29T04:56:03;5.30;;;4.90;;
42668;SDS011;29384;42.028;21.388;2022-07-29T04:58:28;7.82;;;5.30;;
42668;SDS011;29384;42.028;21.388;2022-07-29T05:00:54;7.47;;;5.82;;
42668;SDS011;29384;42.028;21.388;2022-07-29T05:03:19;11.82;;;6.68;;
42668;SDS011;29384;42.028;21.388;2022-07-29T05:05:45;7.68;;;5.13;;
42668;SDS011;29384;42.028;21.388;2022-07-29T05:08:10;6.47;;;5.85;;
42668;SDS011;29384;42.028;21.388;2022-07-29T05:10:36;9.75;;;5.03;;
42668;SDS011;29384;42.028;21.388;2022-07-29T05:13:06;5.22;;;4.82;;
42668;SDS011;29384;42.028;21.388;2022-07-29T05:15:33;4.50;;;4.18;;
42668;SDS011;29384;42.028;21.388;2022-07-29T05:17:59;7.00;;;5.40;;
42668;SDS011;29384;42.028;21.388;2022-07-29T05:20:26;8.02;;;5.13;;
42668;SDS011;29384;42.028;21.388;2022-07-29T05:26:31;6.30;;;5.40;;
42668;SDS011;29384;42.028;21.388;2022-07-29T05:28:57;8.13;;;5.38;;
42668;SDS011;29384;42.028;21.388;2022-07-29T05:31:23;6.57;;;4.65;;
42668;SDS011;29384;42.028;21.388;2022-07-29T05:33:48;13.32;;;5.22;;
42668;SDS011;29384;42.028;21.388;2022-07-29T05:36:14;5.97;;;5.47;;
42668;SDS011;29384;42.028;21.388;2022-07-29T05:38:39;4.97;;;4.57;;
42668;SDS011;29384;42.028;21.388;2022-07-29T05:41:05;8.27;;;6.20;;
42668;SDS011;29384;42.028;21.388;2022-07-29T05:43:30;6.80;;;6.03;;
42668;SDS011;29384;42.028;21.388;2022-07-29T05:45:56;5.07;;;4.57;;
42668;SDS011;29384;42.028;21.388;2022-07-29T05:48:22;4.78;;;4.35;;
42668;SDS011;29384;42.028;21.388;2022-07-29T05:50:48;5.35;;;4.85;;
42668;SDS011;29384;42.028;21.388;2022-07-29T05:53:14;6.22;;;5.57;;
42668;SDS011;29384;42.028;21.388;2022-07-29T05:55:39;5.43;;;4.68;;
42668;SDS011;29384;42.028;21.388;2022-07-29T05:58:05;5.70;;;4.45;;
42668;SDS011;29384;42.028;21.388;2022-07-29T06:00:30;5.45;;;4.88;;
42668;SDS011;29384;42.028;21.388;2022-07-29T06:02:56;5.75;;;4.22;;
42668;SDS011;29384;42.028;21.388;2022-07-29T06:05:22;6.13;;;4.50;;
42668;SDS011;29384;42.028;21.388;2022-07-29T06:11:09;4.80;;;4.30;;
42668;SDS011;29384;42.028;21.388;2022-07-29T06:13:35;4.90;;;4.47;;
42668;SDS011;29384;42.028;21.388;2022-07-29T06:16:00;5.43;;;4.30;;
42668;SDS011;29384;42.028;21.388;2022-07-29T06:18:26;4.88;;;3.92;;
42668;SDS011;29384;42.028;21.388;2022-07-29T06:20:52;5.43;;;4.03;;
42668;SDS011;29384;42.028;21.388;2022-07-29T06:23:18;5.68;;;5.10;;
42668;SDS011;29384;42.028;21.388;2022-07-29T06:25:44;10.32;;;4.75;;
42668;SDS011;29384;42.028;21.388;2022-07-29T06:28:10;17.05;;;4.13;;
42668;SDS011;29384;42.028;21.388;2022-07-29T06:30:36;9.27;;;5.35;;
42668;SDS011;29384;42.028;21.388;2022-07-29T06:33:02;4.15;;;3.85;;
42668;SDS011;29384;42.028;21.388;2022-07-29T06:35:28;4.68;;;4.30;;
42668;SDS011;29384;42.028;21.388;2022-07-29T06:41:15;5.20;;;4.63;;
42668;SDS011;29384;42.028;21.388;2022-07-29T06:43:42;4.80;;;4.40;;
42668;SDS011;29384;42.028;21.388;2022-07-29T06:46:12;6.25;;;4.40;;
42668;SDS011;29384;42.028;21.388;2022-07-29T06:48:40;6.78;;;3.85;;
42668;SDS011;29384;42.028;21.388;2022-07-29T06:51:10;5.18;;;4.75;;
42668;SDS011;29384;42.028;21.388;2022-07-29T06:53:39;6.63;;;3.92;;
42668;SDS011;29384;42.028;21.388;2022-07-29T06:56:05;3.60;;;3.40;;
42668;SDS011;29384;42.028;21.388;2022-07-29T06:58:33;7.63;;;4.40;;
42668;SDS011;29384;42.028;21.388;2022-07-29T07:01:03;4.25;;;3.70;;
42668;SDS011;29384;42.028;21.388;2022-07-29T07:03:30;4.07;;;3.78;;
42668;SDS011;29384;42.028;21.388;2022-07-29T07:05:56;5.15;;;4.50;;
42668;SDS011;29384;42.028;21.388;2022-07-29T07:11:42;4.32;;;4.05;;
42668;SDS011;29384;42.028;21.388;2022-07-29T07:14:08;7.75;;;4.40;;
42668;SDS011;29384;42.028;21.388;2022-07-29T07:16:33;3.88;;;3.58;;
42668;SDS011;29384;42.028;21.388;2022-07-29T07:18:59;5.68;;;3.85;;
42668;SDS011;29384;42.028;21.388;2022-07-29T07:21:25;4.43;;;3.03;;
42668;SDS011;29384;42.028;21.388;2022-07-29T07:23:51;3.60;;;3.50;;
42668;SDS011;29384;42.028;21.388;2022-07-29T07:26:16;3.75;;;3.55;;
42668;SDS011;29384;42.028;21.388;2022-07-29T07:28:42;4.20;;;3.92;;
42668;SDS011;29384;42.028;21.388;2022-07-29T07:31:07;5.82;;;4.25;;
42668;SDS011;29384;42.028;21.388;2022-07-29T07:33:34;5.28;;;4.00;;
42668;SDS011;29384;42.028;21.388;2022-07-29T07:35:59;3.88;;;3.55;;
42668;SDS011;29384;42.028;21.388;2022-07-29T07:41:47;4.60;;;3.17;;
42668;SDS011;29384;42.028;21.388;2022-07-29T07:44:12;5.60;;;3.40;;
42668;SDS011;29384;42.028;21.388;2022-07-29T07:46:38;4.05;;;3.75;;
42668;SDS011;29384;42.028;21.388;2022-07-29T07:49:03;5.97;;;4.10;;
42668;SDS011;29384;42.028;21.388;2022-07-29T07:51:29;4.60;;;3.70;;
42668;SDS011;29384;42.028;21.388;2022-07-29T07:53:54;4.15;;;3.85;;
42668;SDS011;29384;42.028;21.388;2022-07-29T07:56:20;3.70;;;3.47;;
42668;SDS011;29384;42.028;21.388;2022-07-29T07:58:45;4.22;;;4.03;;
42668;SDS011;29384;42.028;21.388;2022-07-29T08:01:10;4.10;;;3.70;;
42668;SDS011;29384;42.028;21.388;2022-07-29T08:03:36;4.50;;;4.00;;
42668;SDS011;29384;42.028;21.388;2022-07-29T08:06:02;4.18;;;3.80;;
42668;SDS011;29384;42.028;21.388;2022-07-29T08:11:50;3.47;;;3.28;;
42668;SDS011;29384;42.028;21.388;2022-07-29T08:14:16;3.55;;;3.25;;
42668;SDS011;29384;42.028;21.388;2022-07-29T08:16:42;3.55;;;3.28;;
42668;SDS011;29384;42.028;21.388;2022-07-29T08:19:08;6.40;;;4.38;;
42668;SDS011;29384;42.028;21.388;2022-07-29T08:21:34;7.07;;;4.25;;
42668;SDS011;29384;42.028;21.388;2022-07-29T08:24:00;4.20;;;3.92;;
42668;SDS011;29384;42.028;21.388;2022-07-29T08:26:44;6.55;;;4.15;;
42668;SDS011;29384;42.028;21.388;2022-07-29T08:29:10;5.97;;;4.20;;
42668;SDS011;29384;42.028;21.388;2022-07-29T08:31:36;7.40;;;4.88;;
42668;SDS011;29384;42.028;21.388;2022-07-29T08:34:02;3.97;;;3.63;;
42668;SDS011;29384;42.028;21.388;2022-07-29T08:36:29;7.38;;;4.15;;
42668;SDS011;29384;42.028;21.388;2022-07-29T08:42:16;5.35;;;4.40;;
42668;SDS011;29384;42.028;21.388;2022-07-29T08:44:42;5.13;;;3.95;;
42668;SDS011;29384;42.028;21.388;2022-07-29T08:47:13;17.25;;;4.78;;
42668;SDS011;29384;42.028;21.388;2022-07-29T08:49:39;6.03;;;4.75;;
42668;SDS011;29384;42.028;21.388;2022-07-29T08:52:05;7.13;;;4.03;;
42668;SDS011;29384;42.028;21.388;2022-07-29T08:54:32;8.85;;;4.90;;
42668;SDS011;29384;42.028;21.388;2022-07-29T08:56:58;3.88;;;3.67;;
42668;SDS011;29384;42.028;21.388;2022-07-29T08:59:25;4.30;;;4.00;;
42668;SDS011;29384;42.028;21.388;2022-07-29T09:01:53;7.18;;;4.63;;
42668;SDS011;29384;42.028;21.388;2022-07-29T09:04:19;5.60;;;4.90;;
42668;SDS011;29384;42.028;21.388;2022-07-29T09:06:47;5.50;;;3.58;;
42668;SDS011;29384;42.028;21.388;2022-07-29T09:09:14;4.28;;;4.10;;
42668;SDS011;29384;42.028;21.388;2022-07-29T09:11:40;4.40;;;4.00;;
42668;SDS011;29384;42.028;21.388;2022-07-29T09:14:06;4.60;;;4.30;;
42668;SDS011;29384;42.028;21.388;2022-07-29T09:16:49;3.63;;;3.33;;
42668;SDS011;29384;42.028;21.388;2022-07-29T09:19:19;6.88;;;4.18;;
42668;SDS011;29384;42.028;21.388;2022-07-29T09:21:46;5.10;;;3.53;;
42668;SDS011;29384;42.028;21.388;2022-07-29T09:24:25;3.55;;;3.38;;
42668;SDS011;29384;42.028;21.388;2022-07-29T09:26:52;4.70;;;4.05;;
42668;SDS011;29384;42.028;21.388;2022-07-29T09:29:19;3.70;;;3.38;;
42668;SDS011;29384;42.028;21.388;2022-07-29T09:31:47;3.40;;;3.30;;
42668;SDS011;29384;42.028;21.388;2022-07-29T09:34:14;4.55;;;4.25;;
42668;SDS011;29384;42.028;21.388;2022-07-29T09:36:42;6.50;;;3.10;;
42668;SDS011;29384;42.028;21.388;2022-07-29T09:42:31;4.68;;;3.92;;
42668;SDS011;29384;42.028;21.388;2022-07-29T09:44:58;3.78;;;3.58;;
42668;SDS011;29384;42.028;21.388;2022-07-29T09:47:25;3.55;;;3.35;;
42668;SDS011;29384;42.028;21.388;2022-07-29T09:50:06;6.35;;;3.67;;
42668;SDS011;29384;42.028;21.388;2022-07-29T09:52:32;3.92;;;3.60;;
42668;SDS011;29384;42.028;21.388;2022-07-29T09:55:11;3.30;;;3.03;;
42668;SDS011;29384;42.028;21.388;2022-07-29T09:57:37;12.77;;;3.78;;
42668;SDS011;29384;42.028;21.388;2022-07-29T10:00:13;4.35;;;3.33;;
42668;SDS011;29384;42.028;21.388;2022-07-29T10:02:44;3.63;;;3.38;;
42668;SDS011;29384;42.028;21.388;2022-07-29T10:07:47;4.25;;;3.95;;
42668;SDS011;29384;42.028;21.388;2022-07-29T10:10:25;3.90;;;3.60;;
42668;SDS011;29384;42.028;21.388;2022-07-29T10:12:59;3.45;;;3.25;;
42668;SDS011;29384;42.028;21.388;2022-07-29T10:15:26;8.30;;;4.45;;
42668;SDS011;29384;42.028;21.388;2022-07-29T10:17:55;5.50;;;3.88;;
42668;SDS011;29384;42.028;21.388;2022-07-29T10:20:21;7.80;;;3.85;;
42668;SDS011;29384;42.028;21.388;2022-07-29T10:22:48;3.65;;;3.45;;
42668;SDS011;29384;42.028;21.388;2022-07-29T10:25:15;3.78;;;3.60;;
42668;SDS011;29384;42.028;21.388;2022-07-29T10:27:41;3.97;;;3.70;;
42668;SDS011;29384;42.028;21.388;2022-07-29T10:30:08;3.33;;;3.13;;
42668;SDS011;29384;42.028;21.388;2022-07-29T10:32:46;4.32;;;3.42;;
42668;SDS011;29384;42.028;21.388;2022-07-29T10:43:36;4.75;;;3.85;;
42668;SDS011;29384;42.028;21.388;2022-07-29T10:46:06;3.80;;;3.60;;
42668;SDS011;29384;42.028;21.388;2022-07-29T10:48:32;4.10;;;3.90;;
42668;SDS011;29384;42.028;21.388;2022-07-29T10:50:59;3.97;;;3.25;;
42668;SDS011;29384;42.028;21.388;2022-07-29T10:56:25;5.13;;;3.60;;
42668;SDS011;29384;42.028;21.388;2022-07-29T11:01:48;4.78;;;3.22;;
42668;SDS011;29384;42.028;21.388;2022-07-29T11:07:11;3.35;;;3.22;;
42668;SDS011;29384;42.028;21.388;2022-07-29T11:09:38;4.53;;;3.70;;
42668;SDS011;29384;42.028;21.388;2022-07-29T11:12:06;3.30;;;3.20;;
42668;SDS011;29384;42.028;21.388;2022-07-29T11:15:01;4.10;;;3.90;;
42668;SDS011;29384;42.028;21.388;2022-07-29T11:17:27;3.75;;;3.55;;
42668;SDS011;29384;42.028;21.388;2022-07-29T11:20:30;3.50;;;3.20;;
42668;SDS011;29384;42.028;21.388;2022-07-29T11:26:21;4.05;;;3.72;;
42668;SDS011;29384;42.028;21.388;2022-07-29T11:28:51;3.95;;;2.67;;
42668;SDS011;29384;42.028;21.388;2022-07-29T11:31:45;4.20;;;3.67;;
42668;SDS011;29384;42.028;21.388;2022-07-29T11:34:21;10.95;;;3.58;;
42668;SDS011;29384;42.028;21.388;2022-07-29T11:37:13;3.50;;;3.30;;
42668;SDS011;29384;42.028;21.388;2022-07-29T11:43:02;7.20;;;4.47;;
42668;SDS011;29384;42.028;21.388;2022-07-29T11:45:44;6.82;;;3.53;;
42668;SDS011;29384;42.028;21.388;2022-07-29T11:48:17;4.50;;;3.20;;
42668;SDS011;29384;42.028;21.388;2022-07-29T11:50:43;3.78;;;3.58;;
42668;SDS011;29384;42.028;21.388;2022-07-29T11:53:10;4.43;;;3.85;;
42668;SDS011;29384;42.028;21.388;2022-07-29T11:55:38;3.53;;;3.33;;
42668;SDS011;29384;42.028;21.388;2022-07-29T11:58:04;3.53;;;3.33;;
42668;SDS011;29384;42.028;21.388;2022-07-29T12:00:31;4.43;;;2.70;;
42668;SDS011;29384;42.028;21.388;2022-07-29T12:02:59;3.08;;;2.88;;
42668;SDS011;29384;42.028;21.388;2022-07-29T12:10:47;4.20;;;3.10;;
42668;SDS011;29384;42.028;21.388;2022-07-29T12:13:14;12.10;;;4.68;;
42668;SDS011;29384;42.028;21.388;2022-07-29T12:15:42;2.88;;;2.72;;
42668;SDS011;29384;42.028;21.388;2022-07-29T12:18:17;4.13;;;2.92;;
42668;SDS011;29384;42.028;21.388;2022-07-29T12:20:45;3.67;;;3.38;;
42668;SDS011;29384;42.028;21.388;2022-07-29T12:23:11;3.00;;;2.80;;
42668;SDS011;29384;42.028;21.388;2022-07-29T12:25:37;3.50;;;3.28;;
42668;SDS011;29384;42.028;21.388;2022-07-29T12:28:09;3.38;;;3.10;;
42668;SDS011;29384;42.028;21.388;2022-07-29T12:30:38;3.80;;;3.55;;
42668;SDS011;29384;42.028;21.388;2022-07-29T12:33:28;3.58;;;3.30;;
42668;SDS011;29384;42.028;21.388;2022-07-29T12:35:54;2.75;;;2.65;;
42668;SDS011;29384;42.028;21.388;2022-07-29T12:38:24;2.55;;;2.45;;
42668;SDS011;29384;42.028;21.388;2022-07-29T12:40:51;2.67;;;2.55;;
42668;SDS011;29384;42.028;21.388;2022-07-29T12:43:19;3.33;;;2.90;;
42668;SDS011;29384;42.028;21.388;2022-07-29T12:45:49;3.53;;;3.33;;
42668;SDS011;29384;42.028;21.388;2022-07-29T12:48:17;3.13;;;2.92;;
42668;SDS011;29384;42.028;21.388;2022-07-29T12:50:58;2.88;;;2.65;;
42668;SDS011;29384;42.028;21.388;2022-07-29T12:53:25;3.70;;;3.55;;
42668;SDS011;29384;42.028;21.388;2022-07-29T12:55:52;3.17;;;2.97;;
42668;SDS011;29384;42.028;21.388;2022-07-29T12:58:28;3.10;;;2.90;;
42668;SDS011;29384;42.028;21.388;2022-07-29T13:06:27;4.10;;;3.42;;
42668;SDS011;29384;42.028;21.388;2022-07-29T13:11:42;4.05;;;3.75;;
42668;SDS011;29384;42.028;21.388;2022-07-29T13:14:35;4.32;;;3.53;;
42668;SDS011;29384;42.028;21.388;2022-07-29T13:17:12;4.05;;;3.67;;
42668;SDS011;29384;42.028;21.388;2022-07-29T13:19:44;3.60;;;3.35;;
42668;SDS011;29384;42.028;21.388;2022-07-29T13:22:13;3.60;;;3.30;;
42668;SDS011;29384;42.028;21.388;2022-07-29T13:24:49;3.67;;;2.83;;
42668;SDS011;29384;42.028;21.388;2022-07-29T13:27:17;3.10;;;3.00;;
42668;SDS011;29384;42.028;21.388;2022-07-29T13:29:43;2.75;;;2.65;;
42668;SDS011;29384;42.028;21.388;2022-07-29T13:32:09;6.35;;;2.60;;
42668;SDS011;29384;42.028;21.388;2022-07-29T13:34:35;5.40;;;2.83;;
42668;SDS011;29384;42.028;21.388;2022-07-29T13:37:01;3.00;;;2.90;;
42668;SDS011;29384;42.028;21.388;2022-07-29T13:39:27;2.80;;;2.58;;
42668;SDS011;29384;42.028;21.388;2022-07-29T13:41:52;3.30;;;3.10;;
42668;SDS011;29384;42.028;21.388;2022-07-29T13:44:18;4.82;;;3.08;;
42668;SDS011;29384;42.028;21.388;2022-07-29T13:46:43;2.88;;;2.78;;
42668;SDS011;29384;42.028;21.388;2022-07-29T13:49:09;2.70;;;2.50;;
42668;SDS011;29384;42.028;21.388;2022-07-29T13:51:36;9.48;;;2.35;;
42668;SDS011;29384;42.028;21.388;2022-07-29T13:54:01;2.80;;;2.70;;
42668;SDS011;29384;42.028;21.388;2022-07-29T13:56:27;3.17;;;2.95;;
42668;SDS011;29384;42.028;21.388;2022-07-29T13:58:52;4.03;;;2.85;;
42668;SDS011;29384;42.028;21.388;2022-07-29T14:01:18;2.75;;;2.50;;
42668;SDS011;29384;42.028;21.388;2022-07-29T14:03:43;2.63;;;2.40;;
42668;SDS011;29384;42.028;21.388;2022-07-29T14:06:09;2.80;;;2.70;;
42668;SDS011;29384;42.028;21.388;2022-07-29T14:08:34;8.32;;;3.42;;
42668;SDS011;29384;42.028;21.388;2022-07-29T14:11:00;2.80;;;2.70;;
42668;SDS011;29384;42.028;21.388;2022-07-29T14:13:25;5.40;;;2.72;;
42668;SDS011;29384;42.028;21.388;2022-07-29T14:15:51;3.05;;;2.85;;
42668;SDS011;29384;42.028;21.388;2022-07-29T14:18:17;2.33;;;2.22;;
42668;SDS011;29384;42.028;21.388;2022-07-29T14:20:42;3.15;;;2.85;;
42668;SDS011;29384;42.028;21.388;2022-07-29T14:23:08;3.22;;;2.92;;
42668;SDS011;29384;42.028;21.388;2022-07-29T14:28:55;3.17;;;2.97;;
42668;SDS011;29384;42.028;21.388;2022-07-29T14:31:20;2.40;;;2.17;;
42668;SDS011;29384;42.028;21.388;2022-07-29T14:33:46;2.65;;;2.55;;
42668;SDS011;29384;42.028;21.388;2022-07-29T14:36:11;2.28;;;2.17;;
42668;SDS011;29384;42.028;21.388;2022-07-29T14:38:37;3.53;;;3.30;;
42668;SDS011;29384;42.028;21.388;2022-07-29T14:41:03;3.20;;;3.00;;
42668;SDS011;29384;42.028;21.388;2022-07-29T14:43:29;2.50;;;2.40;;
42668;SDS011;29384;42.028;21.388;2022-07-29T14:45:55;2.50;;;2.35;;
42668;SDS011;29384;42.028;21.388;2022-07-29T14:48:21;2.38;;;2.10;;
42668;SDS011;29384;42.028;21.388;2022-07-29T14:50:46;2.40;;;2.30;;
42668;SDS011;29384;42.028;21.388;2022-07-29T14:53:12;2.40;;;2.30;;
42668;SDS011;29384;42.028;21.388;2022-07-29T14:58:59;2.42;;;2.28;;
42668;SDS011;29384;42.028;21.388;2022-07-29T15:01:25;3.83;;;2.67;;
42668;SDS011;29384;42.028;21.388;2022-07-29T15:03:52;2.58;;;2.38;;
42668;SDS011;29384;42.028;21.388;2022-07-29T15:06:17;2.95;;;2.83;;
42668;SDS011;29384;42.028;21.388;2022-07-29T15:08:43;3.10;;;2.78;;
42668;SDS011;29384;42.028;21.388;2022-07-29T15:11:08;2.72;;;2.60;;
42668;SDS011;29384;42.028;21.388;2022-07-29T15:13:34;8.15;;;3.15;;
42668;SDS011;29384;42.028;21.388;2022-07-29T15:15:59;5.28;;;2.70;;
42668;SDS011;29384;42.028;21.388;2022-07-29T15:18:25;2.47;;;2.28;;
42668;SDS011;29384;42.028;21.388;2022-07-29T15:20:51;3.00;;;2.80;;
42668;SDS011;29384;42.028;21.388;2022-07-29T15:23:16;2.40;;;2.28;;
42668;SDS011;29384;42.028;21.388;2022-07-29T15:29:04;3.05;;;2.85;;
42668;SDS011;29384;42.028;21.388;2022-07-29T15:31:29;5.15;;;3.05;;
42668;SDS011;29384;42.028;21.388;2022-07-29T15:33:55;6.68;;;2.88;;
42668;SDS011;29384;42.028;21.388;2022-07-29T15:36:20;2.58;;;2.38;;
42668;SDS011;29384;42.028;21.388;2022-07-29T15:38:46;2.45;;;2.35;;
42668;SDS011;29384;42.028;21.388;2022-07-29T15:41:14;3.10;;;2.28;;
42668;SDS011;29384;42.028;21.388;2022-07-29T15:43:43;2.42;;;2.42;;
42668;SDS011;29384;42.028;21.388;2022-07-29T15:46:13;1.98;;;1.80;;
42668;SDS011;29384;42.028;21.388;2022-07-29T15:48:58;11.32;;;2.65;;
42668;SDS011;29384;42.028;21.388;2022-07-29T15:51:24;2.55;;;2.35;;
42668;SDS011;29384;42.028;21.388;2022-07-29T15:53:50;2.63;;;2.30;;
42668;SDS011;29384;42.028;21.388;2022-07-29T15:56:15;2.80;;;2.63;;
42668;SDS011;29384;42.028;21.388;2022-07-29T15:58:41;2.13;;;2.03;;
42668;SDS011;29384;42.028;21.388;2022-07-29T16:01:07;2.78;;;2.58;;
42668;SDS011;29384;42.028;21.388;2022-07-29T16:03:32;3.50;;;2.55;;
42668;SDS011;29384;42.028;21.388;2022-07-29T16:05:58;2.22;;;2.13;;
42668;SDS011;29384;42.028;21.388;2022-07-29T16:08:23;4.05;;;2.90;;
42668;SDS011;29384;42.028;21.388;2022-07-29T16:14:11;2.55;;;2.40;;
42668;SDS011;29384;42.028;21.388;2022-07-29T16:16:36;2.60;;;2.45;;
42668;SDS011;29384;42.028;21.388;2022-07-29T16:19:03;1.98;;;1.90;;
42668;SDS011;29384;42.028;21.388;2022-07-29T16:21:29;2.50;;;2.30;;
42668;SDS011;29384;42.028;21.388;2022-07-29T16:23:56;2.75;;;2.65;;